<?xml version="1.0"?>
<gpx xmlns="http://www.topografix.com/GPX/1/1" xmlns:xsi="http://www.w3.org/2001/XMLSchema-instance" xmlns:wptx1="http://www.garmin.com/xmlschemas/WaypointExtension/v1" xmlns:gpxtrx="http://www.garmin.com/xmlschemas/GpxExtensions/v3" xmlns:gpxtpx="http://www.garmin.com/xmlschemas/TrackPointExtension/v1" xmlns:gpxx="http://www.garmin.com/xmlschemas/GpxExtensions/v3" xmlns:trp="http://www.garmin.com/xmlschemas/TripExtensions/v1" xmlns:adv="http://www.garmin.com/xmlschemas/AdventuresExtensions/v1" xmlns:prs="http://www.garmin.com/xmlschemas/PressureExtension/v1" xmlns:tmd="http://www.garmin.com/xmlschemas/TripMetaDataExtensions/v1" xmlns:vptm="http://www.garmin.com/xmlschemas/ViaPointTransportationModeExtensions/v1" xmlns:ctx="http://www.garmin.com/xmlschemas/CreationTimeExtension/v1" xmlns:gpxacc="http://www.garmin.com/xmlschemas/AccelerationExtension/v1" xmlns:gpxpx="http://www.garmin.com/xmlschemas/PowerExtension/v1" xmlns:vidx1="http://www.garmin.com/xmlschemas/VideoExtension/v1" creator="Garmin Desktop App" version="1.1" xsi:schemaLocation="http://www.topografix.com/GPX/1/1 http://www.topografix.com/GPX/1/1/gpx.xsd http://www.garmin.com/xmlschemas/WaypointExtension/v1 http://www8.garmin.com/xmlschemas/WaypointExtensionv1.xsd http://www.garmin.com/xmlschemas/TrackPointExtension/v1 http://www.garmin.com/xmlschemas/TrackPointExtensionv1.xsd http://www.garmin.com/xmlschemas/GpxExtensions/v3 http://www8.garmin.com/xmlschemas/GpxExtensionsv3.xsd http://www.garmin.com/xmlschemas/ActivityExtension/v1 http://www8.garmin.com/xmlschemas/ActivityExtensionv1.xsd http://www.garmin.com/xmlschemas/AdventuresExtensions/v1 http://www8.garmin.com/xmlschemas/AdventuresExtensionv1.xsd http://www.garmin.com/xmlschemas/PressureExtension/v1 http://www.garmin.com/xmlschemas/PressureExtensionv1.xsd http://www.garmin.com/xmlschemas/TripExtensions/v1 http://www.garmin.com/xmlschemas/TripExtensionsv1.xsd http://www.garmin.com/xmlschemas/TripMetaDataExtensions/v1 http://www.garmin.com/xmlschemas/TripMetaDataExtensionsv1.xsd http://www.garmin.com/xmlschemas/ViaPointTransportationModeExtensions/v1 http://www.garmin.com/xmlschemas/ViaPointTransportationModeExtensionsv1.xsd http://www.garmin.com/xmlschemas/CreationTimeExtension/v1 http://www.garmin.com/xmlschemas/CreationTimeExtensionsv1.xsd http://www.garmin.com/xmlschemas/AccelerationExtension/v1 http://www.garmin.com/xmlschemas/AccelerationExtensionv1.xsd http://www.garmin.com/xmlschemas/PowerExtension/v1 http://www.garmin.com/xmlschemas/PowerExtensionv1.xsd http://www.garmin.com/xmlschemas/VideoExtension/v1 http://www.garmin.com/xmlschemas/VideoExtensionv1.xsd">

  <metadata>
    <link href="http://www.garmin.com">
      <text>Garmin International</text>
    </link>
    <time>2018-02-26T07:30:42Z</time>
    <bounds maxlat="14.220116408541799" maxlon="101.434876034036279" minlat="14.145181607455015" minlon="101.37858166359365"/>
  </metadata>

  <wpt lat="14.21677378937602" lon="101.406523324549198">
    <ele>49</ele>
    <name>KhaoYaiGrandView</name>
    <cmt>31-AUG-13 12:51:48</cmt>
    <desc>31-AUG-13 12:51:48</desc>
    <sym>Lodging</sym>
    <type>user</type>
    <extensions>
      <gpxx:WaypointExtension>
        <gpxx:DisplayMode>SymbolAndName</gpxx:DisplayMode>
      </gpxx:WaypointExtension>
      <wptx1:WaypointExtension>
        <wptx1:DisplayMode>SymbolAndName</wptx1:DisplayMode>
      </wptx1:WaypointExtension>
    </extensions>
  </wpt>

  <wpt lat="14.153610449284315" lon="101.404151329770684">
    <ele>58</ele>
    <name>Water Sat1</name>
    <cmt>31-AUG-13 14:39:51</cmt>
    <desc>31-AUG-13 14:39:51</desc>
    <sym>Drinking Water</sym>
    <type>user</type>
    <extensions>
      <gpxx:WaypointExtension>
        <gpxx:DisplayMode>SymbolOnly</gpxx:DisplayMode>
      </gpxx:WaypointExtension>
      <wptx1:WaypointExtension>
        <wptx1:DisplayMode>SymbolOnly</wptx1:DisplayMode>
      </wptx1:WaypointExtension>
    </extensions>
  </wpt>

  <trk>
    <name>Sat-Shortcut1</name>
    <extensions>
      <gpxx:TrackExtension>
        <gpxx:DisplayColor>DarkRed</gpxx:DisplayColor>
      </gpxx:TrackExtension>
    </extensions>
    <trkseg>
      <trkpt lat="14.16076960042119" lon="101.399123780429363">
        <ele>82.810791015625</ele>
        <time>2013-08-31T07:52:25Z</time>
      </trkpt>
      <trkpt lat="14.160896167159081" lon="101.39892864972353">
        <ele>82.810791015625</ele>
        <time>2013-08-31T07:52:42Z</time>
      </trkpt>
      <trkpt lat="14.160670442506671" lon="101.398706194013357">
        <ele>81.849365234375</ele>
        <time>2013-08-31T07:52:55Z</time>
      </trkpt>
      <trkpt lat="14.16024137288332" lon="101.398602928966284">
        <ele>79.446044921875</ele>
        <time>2013-08-31T07:53:09Z</time>
      </trkpt>
      <trkpt lat="14.159843232482672" lon="101.398303024470806">
        <ele>77.5234375</ele>
        <time>2013-08-31T07:53:23Z</time>
      </trkpt>
      <trkpt lat="14.159519104287028" lon="101.39789029955864">
        <ele>73.1976318359375</ele>
        <time>2013-08-31T07:53:40Z</time>
      </trkpt>
      <trkpt lat="14.158839751034975" lon="101.397732719779015">
        <ele>71.7554931640625</ele>
        <time>2013-08-31T07:54:10Z</time>
      </trkpt>
      <trkpt lat="14.158529285341501" lon="101.397568602114916">
        <ele>72.7169189453125</ele>
        <time>2013-08-31T07:54:24Z</time>
      </trkpt>
      <trkpt lat="14.158103233203292" lon="101.397172641009092">
        <ele>71.7554931640625</ele>
        <time>2013-08-31T07:54:45Z</time>
      </trkpt>
      <trkpt lat="14.157851440832019" lon="101.397116063162684">
        <ele>67.4296875</ele>
        <time>2013-08-31T07:55:00Z</time>
      </trkpt>
      <trkpt lat="14.157535526901484" lon="101.397026544436812">
        <ele>64.545654296875</ele>
        <time>2013-08-31T07:55:18Z</time>
      </trkpt>
      <trkpt lat="14.157374175265431" lon="101.39697952196002">
        <ele>63.5843505859375</ele>
        <time>2013-08-31T07:55:26Z</time>
      </trkpt>
      <trkpt lat="14.157173596322536" lon="101.396596804261208">
        <ele>61.1810302734375</ele>
        <time>2013-08-31T07:55:43Z</time>
      </trkpt>
      <trkpt lat="14.157249620184302" lon="101.396335121244192">
        <ele>61.6617431640625</ele>
        <time>2013-08-31T07:55:56Z</time>
      </trkpt>
      <trkpt lat="14.157283818349242" lon="101.396077126264572">
        <ele>62.142333984375</ele>
        <time>2013-08-31T07:56:10Z</time>
      </trkpt>
      <trkpt lat="14.157378785312176" lon="101.395761715248227">
        <ele>62.6229248046875</ele>
        <time>2013-08-31T07:56:25Z</time>
      </trkpt>
      <trkpt lat="14.157388927415013" lon="101.395327281206846">
        <ele>63.5843505859375</ele>
        <time>2013-08-31T07:56:49Z</time>
      </trkpt>
      <trkpt lat="14.15721039287746" lon="101.394959148019552">
        <ele>67.4296875</ele>
        <time>2013-08-31T07:57:09Z</time>
      </trkpt>
      <trkpt lat="14.157359423115849" lon="101.394712971523404">
        <ele>73.1976318359375</ele>
        <time>2013-08-31T07:57:24Z</time>
      </trkpt>
      <trkpt lat="14.157700231298804" lon="101.394444918259978">
        <ele>75.1202392578125</ele>
        <time>2013-08-31T07:57:44Z</time>
      </trkpt>
      <trkpt lat="14.157793102785945" lon="101.394369984045625">
        <ele>75.1202392578125</ele>
        <time>2013-08-31T07:57:49Z</time>
      </trkpt>
      <trkpt lat="14.158092672005296" lon="101.394311897456646">
        <ele>76.0814208984375</ele>
        <time>2013-08-31T07:58:04Z</time>
      </trkpt>
      <trkpt lat="14.158351002261043" lon="101.394100757315755">
        <ele>77.0428466796875</ele>
        <time>2013-08-31T07:58:19Z</time>
      </trkpt>
      <trkpt lat="14.158520735800266" lon="101.393909817561507">
        <ele>78.4847412109375</ele>
        <time>2013-08-31T07:58:37Z</time>
      </trkpt>
      <trkpt lat="14.158649398013949" lon="101.393775455653667">
        <ele>78.9654541015625</ele>
        <time>2013-08-31T07:58:54Z</time>
      </trkpt>
      <trkpt lat="14.158897418528795" lon="101.393598597496748">
        <ele>80.407470703125</ele>
        <time>2013-08-31T07:59:12Z</time>
      </trkpt>
      <trkpt lat="14.159051142632961" lon="101.393392654135823">
        <ele>80.407470703125</ele>
        <time>2013-08-31T07:59:31Z</time>
      </trkpt>
      <trkpt lat="14.15913169272244" lon="101.393167767673731">
        <ele>81.3687744140625</ele>
        <time>2013-08-31T07:59:46Z</time>
      </trkpt>
      <trkpt lat="14.159354567527771" lon="101.39289460144937">
        <ele>81.3687744140625</ele>
        <time>2013-08-31T08:00:08Z</time>
      </trkpt>
      <trkpt lat="14.159570904448628" lon="101.392599390819669">
        <ele>85.2139892578125</ele>
        <time>2013-08-31T08:00:29Z</time>
      </trkpt>
      <trkpt lat="14.159778691828251" lon="101.392306946218014">
        <ele>89.5399169921875</ele>
        <time>2013-08-31T08:00:48Z</time>
      </trkpt>
      <trkpt lat="14.160019839182496" lon="101.391950296238065">
        <ele>93.8658447265625</ele>
        <time>2013-08-31T08:01:11Z</time>
      </trkpt>
      <trkpt lat="14.160301387310028" lon="101.391558861359954">
        <ele>93.3851318359375</ele>
        <time>2013-08-31T08:01:34Z</time>
      </trkpt>
      <trkpt lat="14.160533817484975" lon="101.391320144757628">
        <ele>93.8658447265625</ele>
        <time>2013-08-31T08:01:53Z</time>
      </trkpt>
      <trkpt lat="14.160704640671611" lon="101.391229955479503">
        <ele>92.904541015625</ele>
        <time>2013-08-31T08:02:06Z</time>
      </trkpt>
      <trkpt lat="14.161080569028854" lon="101.391092827543616">
        <ele>94.8271484375</ele>
        <time>2013-08-31T08:02:28Z</time>
      </trkpt>
      <trkpt lat="14.161269245669246" lon="101.391032813116908">
        <ele>95.3077392578125</ele>
        <time>2013-08-31T08:02:37Z</time>
      </trkpt>
      <trkpt lat="14.161356668919325" lon="101.390926614403725">
        <ele>95.7884521484375</ele>
        <time>2013-08-31T08:02:44Z</time>
      </trkpt>
      <trkpt lat="14.161361865699291" lon="101.390909180045128">
        <ele>95.7884521484375</ele>
        <time>2013-08-31T08:02:45Z</time>
      </trkpt>
      <trkpt lat="14.161523887887597" lon="101.390731651335955">
        <ele>96.269287109375</ele>
        <time>2013-08-31T08:03:03Z</time>
      </trkpt>
      <trkpt lat="14.161770567297935" lon="101.390532162040472">
        <ele>101.556396484375</ele>
        <time>2013-08-31T08:03:23Z</time>
      </trkpt>
      <trkpt lat="14.161925632506609" lon="101.390308029949665">
        <ele>102.037109375</ele>
        <time>2013-08-31T08:03:43Z</time>
      </trkpt>
    </trkseg>
  </trk>

  <trk>
    <name>Saturday 006</name>
    <extensions>
      <gpxx:TrackExtension>
        <gpxx:DisplayColor>Red</gpxx:DisplayColor>
      </gpxx:TrackExtension>
    </extensions>
    <trkseg>
      <trkpt lat="14.216756522655487" lon="101.406531035900116">
        <ele>40.0321044921875</ele>
        <time>2013-08-31T06:03:36Z</time>
      </trkpt>
      <trkpt lat="14.216844784095883" lon="101.407032189890742">
        <ele>41.9547119140625</ele>
        <time>2013-08-31T06:03:58Z</time>
      </trkpt>
      <trkpt lat="14.217200931161642" lon="101.407496379688382">
        <ele>40.993408203125</ele>
        <time>2013-08-31T06:04:13Z</time>
      </trkpt>
      <trkpt lat="14.217889001592994" lon="101.407770300284028">
        <ele>41.4739990234375</ele>
        <time>2013-08-31T06:04:31Z</time>
      </trkpt>
      <trkpt lat="14.218036690726876" lon="101.40795512124896">
        <ele>42.916015625</ele>
        <time>2013-08-31T06:04:38Z</time>
      </trkpt>
      <trkpt lat="14.218059154227376" lon="101.408465327695012">
        <ele>44.838623046875</ele>
        <time>2013-08-31T06:04:51Z</time>
      </trkpt>
      <trkpt lat="14.220020184293389" lon="101.409100508317351">
        <ele>45.7999267578125</ele>
        <time>2013-08-31T06:05:43Z</time>
      </trkpt>
      <trkpt lat="14.220102746039629" lon="101.408637575805187">
        <ele>47.7225341796875</ele>
        <time>2013-08-31T06:06:09Z</time>
      </trkpt>
      <trkpt lat="14.220116408541799" lon="101.408588793128729">
        <ele>47.7225341796875</ele>
        <time>2013-08-31T06:06:37Z</time>
      </trkpt>
      <trkpt lat="14.219975424930453" lon="101.409225650131702">
        <ele>63.1036376953125</ele>
        <time>2013-08-31T06:09:03Z</time>
      </trkpt>
      <trkpt lat="14.219991602003574" lon="101.40965798869729">
        <ele>54.4517822265625</ele>
        <time>2013-08-31T06:12:25Z</time>
      </trkpt>
      <trkpt lat="14.219660768285394" lon="101.409972896799445">
        <ele>51.087158203125</ele>
        <time>2013-08-31T06:13:56Z</time>
      </trkpt>
      <trkpt lat="14.219401264563203" lon="101.409979602321982">
        <ele>49.645263671875</ele>
        <time>2013-08-31T06:14:13Z</time>
      </trkpt>
      <trkpt lat="14.21905173920095" lon="101.411372339352965">
        <ele>49.16455078125</ele>
        <time>2013-08-31T06:15:29Z</time>
      </trkpt>
      <trkpt lat="14.218810424208641" lon="101.411528158932924">
        <ele>50.1259765625</ele>
        <time>2013-08-31T06:15:46Z</time>
      </trkpt>
      <trkpt lat="14.21855972148478" lon="101.411686493083835">
        <ele>48.6839599609375</ele>
        <time>2013-08-31T06:16:01Z</time>
      </trkpt>
      <trkpt lat="14.218173483386636" lon="101.411791434511542">
        <ele>45.7999267578125</ele>
        <time>2013-08-31T06:16:17Z</time>
      </trkpt>
      <trkpt lat="14.217516677454114" lon="101.411658246070147">
        <ele>46.76123046875</ele>
        <time>2013-08-31T06:16:40Z</time>
      </trkpt>
      <trkpt lat="14.216508166864514" lon="101.411510221660137">
        <ele>40.993408203125</ele>
        <time>2013-08-31T06:17:09Z</time>
      </trkpt>
      <trkpt lat="14.216050431132317" lon="101.411645002663136">
        <ele>40.0321044921875</ele>
        <time>2013-08-31T06:17:23Z</time>
      </trkpt>
      <trkpt lat="14.215920930728316" lon="101.411329172551632">
        <ele>40.993408203125</ele>
        <time>2013-08-31T06:17:33Z</time>
      </trkpt>
      <trkpt lat="14.215437965467572" lon="101.410768507048488">
        <ele>42.916015625</ele>
        <time>2013-08-31T06:17:50Z</time>
      </trkpt>
      <trkpt lat="14.214553758502007" lon="101.410305658355355">
        <ele>43.8773193359375</ele>
        <time>2013-08-31T06:18:13Z</time>
      </trkpt>
      <trkpt lat="14.212798504158854" lon="101.409469731152058">
        <ele>38.590087890625</ele>
        <time>2013-08-31T06:18:50Z</time>
      </trkpt>
      <trkpt lat="14.211331168189645" lon="101.408465998247266">
        <ele>38.590087890625</ele>
        <time>2013-08-31T06:19:59Z</time>
      </trkpt>
      <trkpt lat="14.211159758269787" lon="101.40859424136579">
        <ele>31.8607177734375</ele>
        <time>2013-08-31T06:21:08Z</time>
      </trkpt>
      <trkpt lat="14.211232345551252" lon="101.408739080652595">
        <ele>35.7060546875</ele>
        <time>2013-08-31T06:21:35Z</time>
      </trkpt>
      <trkpt lat="14.211306944489479" lon="101.408949131146073">
        <ele>36.66748046875</ele>
        <time>2013-08-31T06:21:48Z</time>
      </trkpt>
      <trkpt lat="14.211329491809011" lon="101.409539552405477">
        <ele>40.0321044921875</ele>
        <time>2013-08-31T06:22:24Z</time>
      </trkpt>
      <trkpt lat="14.21150928363204" lon="101.41074176877737">
        <ele>40.993408203125</ele>
        <time>2013-08-31T06:23:18Z</time>
      </trkpt>
      <trkpt lat="14.21144382096827" lon="101.410742439329624">
        <ele>40.5128173828125</ele>
        <time>2013-08-31T06:23:22Z</time>
      </trkpt>
      <trkpt lat="14.210484428331256" lon="101.410284535959363">
        <ele>37.628662109375</ele>
        <time>2013-08-31T06:23:59Z</time>
      </trkpt>
      <trkpt lat="14.21023640781641" lon="101.409935429692268">
        <ele>40.0321044921875</ele>
        <time>2013-08-31T06:24:22Z</time>
      </trkpt>
      <trkpt lat="14.209769451990724" lon="101.40965455211699">
        <ele>42.4354248046875</ele>
        <time>2013-08-31T06:24:49Z</time>
      </trkpt>
      <trkpt lat="14.209436187520623" lon="101.408898755908012">
        <ele>47.2418212890625</ele>
        <time>2013-08-31T06:25:30Z</time>
      </trkpt>
      <trkpt lat="14.209324037656188" lon="101.408667415380478">
        <ele>46.76123046875</ele>
        <time>2013-08-31T06:25:43Z</time>
      </trkpt>
      <trkpt lat="14.208982475101948" lon="101.40852240845561">
        <ele>44.3580322265625</ele>
        <time>2013-08-31T06:25:57Z</time>
      </trkpt>
      <trkpt lat="14.206902254372835" lon="101.407953863963485">
        <ele>35.7060546875</ele>
        <time>2013-08-31T06:27:06Z</time>
      </trkpt>
      <trkpt lat="14.206702429801226" lon="101.408165423199534">
        <ele>36.186767578125</ele>
        <time>2013-08-31T06:27:17Z</time>
      </trkpt>
      <trkpt lat="14.205459477379918" lon="101.408384861424565">
        <ele>37.628662109375</ele>
        <time>2013-08-31T06:28:14Z</time>
      </trkpt>
      <trkpt lat="14.202795121818781" lon="101.408092249184847">
        <ele>43.3966064453125</ele>
        <time>2013-08-31T06:30:29Z</time>
      </trkpt>
      <trkpt lat="14.202747931703925" lon="101.407351037487388">
        <ele>42.4354248046875</ele>
        <time>2013-08-31T06:31:02Z</time>
      </trkpt>
      <trkpt lat="14.200746584683657" lon="101.407087342813611">
        <ele>37.1480712890625</ele>
        <time>2013-08-31T06:32:00Z</time>
      </trkpt>
      <trkpt lat="14.196744058281183" lon="101.407260512933135">
        <ele>33.3028564453125</ele>
        <time>2013-08-31T06:33:33Z</time>
      </trkpt>
      <trkpt lat="14.19656066223979" lon="101.407299321144819">
        <ele>31.380126953125</ele>
        <time>2013-08-31T06:33:37Z</time>
      </trkpt>
      <trkpt lat="14.196127401664853" lon="101.407740041613579">
        <ele>32.341552734375</ele>
        <time>2013-08-31T06:33:49Z</time>
      </trkpt>
      <trkpt lat="14.194484045729041" lon="101.407673992216587">
        <ele>28.4962158203125</ele>
        <time>2013-08-31T06:34:22Z</time>
      </trkpt>
      <trkpt lat="14.194305846467614" lon="101.407886305823922">
        <ele>28.9769287109375</ele>
        <time>2013-08-31T06:34:28Z</time>
      </trkpt>
      <trkpt lat="14.194324454292655" lon="101.408406989648938">
        <ele>32.341552734375</ele>
        <time>2013-08-31T06:34:38Z</time>
      </trkpt>
      <trkpt lat="14.194096382707357" lon="101.408683676272631">
        <ele>32.341552734375</ele>
        <time>2013-08-31T06:34:45Z</time>
      </trkpt>
      <trkpt lat="14.191834777593613" lon="101.409489596262574">
        <ele>28.0155029296875</ele>
        <time>2013-08-31T06:35:28Z</time>
      </trkpt>
      <trkpt lat="14.189605358988047" lon="101.410017237067223">
        <ele>27.0543212890625</ele>
        <time>2013-08-31T06:36:08Z</time>
      </trkpt>
      <trkpt lat="14.189552972093225" lon="101.410038527101278">
        <ele>26.5736083984375</ele>
        <time>2013-08-31T06:36:09Z</time>
      </trkpt>
      <trkpt lat="14.187532179057598" lon="101.412064433097839">
        <ele>28.4962158203125</ele>
        <time>2013-08-31T06:37:03Z</time>
      </trkpt>
      <trkpt lat="14.184726504608989" lon="101.412382274866104">
        <ele>26.5736083984375</ele>
        <time>2013-08-31T06:37:57Z</time>
      </trkpt>
      <trkpt lat="14.182719709351659" lon="101.415206640958786">
        <ele>30.8995361328125</ele>
        <time>2013-08-31T06:39:02Z</time>
      </trkpt>
      <trkpt lat="14.180899327620864" lon="101.41835555434227">
        <ele>29.9381103515625</ele>
        <time>2013-08-31T06:40:11Z</time>
      </trkpt>
      <trkpt lat="14.18063429184258" lon="101.418738858774304">
        <ele>29.45751953125</ele>
        <time>2013-08-31T06:40:21Z</time>
      </trkpt>
      <trkpt lat="14.180388869717717" lon="101.418860396370292">
        <ele>38.109375</ele>
        <time>2013-08-31T06:40:32Z</time>
      </trkpt>
      <trkpt lat="14.179590409621596" lon="101.418843381106853">
        <ele>34.744873046875</ele>
        <time>2013-08-31T06:40:54Z</time>
      </trkpt>
      <trkpt lat="14.178178645670414" lon="101.41912953928113">
        <ele>29.45751953125</ele>
        <time>2013-08-31T06:41:40Z</time>
      </trkpt>
      <trkpt lat="14.177974881604314" lon="101.418794011697173">
        <ele>29.45751953125</ele>
        <time>2013-08-31T06:41:53Z</time>
      </trkpt>
      <trkpt lat="14.177483199164271" lon="101.418506680056453">
        <ele>30.4188232421875</ele>
        <time>2013-08-31T06:42:10Z</time>
      </trkpt>
      <trkpt lat="14.17741178534925" lon="101.418473990634084">
        <ele>29.9381103515625</ele>
        <time>2013-08-31T06:42:13Z</time>
      </trkpt>
      <trkpt lat="14.176435880362988" lon="101.418961146846414">
        <ele>30.8995361328125</ele>
        <time>2013-08-31T06:43:00Z</time>
      </trkpt>
      <trkpt lat="14.175533065572381" lon="101.418723100796342">
        <ele>27.0543212890625</ele>
        <time>2013-08-31T06:43:44Z</time>
      </trkpt>
      <trkpt lat="14.174819765612483" lon="101.42078647390008">
        <ele>26.5736083984375</ele>
        <time>2013-08-31T06:45:09Z</time>
      </trkpt>
      <trkpt lat="14.174615247175097" lon="101.421567834913731">
        <ele>24.6510009765625</ele>
        <time>2013-08-31T06:45:34Z</time>
      </trkpt>
      <trkpt lat="14.17627184651792" lon="101.422459585592151">
        <ele>20.8056640625</ele>
        <time>2013-08-31T06:46:31Z</time>
      </trkpt>
      <trkpt lat="14.176415847614408" lon="101.423293752595782">
        <ele>23.6895751953125</ele>
        <time>2013-08-31T06:46:57Z</time>
      </trkpt>
      <trkpt lat="14.176269583404064" lon="101.424294132739305">
        <ele>20.324951171875</ele>
        <time>2013-08-31T06:47:26Z</time>
      </trkpt>
      <trkpt lat="14.176737796515226" lon="101.426748186349869">
        <ele>23.208984375</ele>
        <time>2013-08-31T06:48:30Z</time>
      </trkpt>
      <trkpt lat="14.176613660529256" lon="101.426831251010299">
        <ele>22.728271484375</ele>
        <time>2013-08-31T06:48:34Z</time>
      </trkpt>
      <trkpt lat="14.17607294395566" lon="101.426495555788279">
        <ele>24.6510009765625</ele>
        <time>2013-08-31T06:49:00Z</time>
      </trkpt>
      <trkpt lat="14.176060371100903" lon="101.427050940692425">
        <ele>26.0928955078125</ele>
        <time>2013-08-31T06:49:17Z</time>
      </trkpt>
      <trkpt lat="14.176101358607411" lon="101.427888041362166">
        <ele>28.0155029296875</ele>
        <time>2013-08-31T06:49:36Z</time>
      </trkpt>
      <trkpt lat="14.176078895106912" lon="101.429074415937066">
        <ele>25.1317138671875</ele>
        <time>2013-08-31T06:50:12Z</time>
      </trkpt>
      <trkpt lat="14.175753509625793" lon="101.429469790309668">
        <ele>26.0928955078125</ele>
        <time>2013-08-31T06:50:29Z</time>
      </trkpt>
      <trkpt lat="14.175730207934976" lon="101.429848736152053">
        <ele>28.4962158203125</ele>
        <time>2013-08-31T06:50:46Z</time>
      </trkpt>
      <trkpt lat="14.17608174495399" lon="101.430452233180404">
        <ele>27.534912109375</ele>
        <time>2013-08-31T06:51:11Z</time>
      </trkpt>
      <trkpt lat="14.176367819309235" lon="101.430477043613791">
        <ele>26.5736083984375</ele>
        <time>2013-08-31T06:51:19Z</time>
      </trkpt>
      <trkpt lat="14.176421966403723" lon="101.431109122931957">
        <ele>28.9769287109375</ele>
        <time>2013-08-31T06:51:44Z</time>
      </trkpt>
      <trkpt lat="14.17744304984808" lon="101.431452864781022">
        <ele>28.9769287109375</ele>
        <time>2013-08-31T06:52:17Z</time>
      </trkpt>
      <trkpt lat="14.17776701040566" lon="101.433128239586949">
        <ele>28.0155029296875</ele>
        <time>2013-08-31T06:53:16Z</time>
      </trkpt>
      <trkpt lat="14.177977815270424" lon="101.433589244261384">
        <ele>32.341552734375</ele>
        <time>2013-08-31T06:54:54Z</time>
      </trkpt>
      <trkpt lat="14.177623009309173" lon="101.434556599706411">
        <ele>30.4188232421875</ele>
        <time>2013-08-31T06:55:39Z</time>
      </trkpt>
      <trkpt lat="14.177350345999002" lon="101.434705378487706">
        <ele>28.4962158203125</ele>
        <time>2013-08-31T06:55:50Z</time>
      </trkpt>
      <trkpt lat="14.175973618403077" lon="101.434876034036279">
        <ele>27.0543212890625</ele>
        <time>2013-08-31T06:56:36Z</time>
      </trkpt>
      <trkpt lat="14.175396524369717" lon="101.434749970212579">
        <ele>31.8607177734375</ele>
        <time>2013-08-31T06:57:08Z</time>
      </trkpt>
      <trkpt lat="14.173136092722416" lon="101.433686390519142">
        <ele>28.0155029296875</ele>
        <time>2013-08-31T06:58:18Z</time>
      </trkpt>
      <trkpt lat="14.172645667567849" lon="101.434858348220587">
        <ele>21.286376953125</ele>
        <time>2013-08-31T06:58:51Z</time>
      </trkpt>
      <trkpt lat="14.171620393171906" lon="101.434701019898057">
        <ele>18.40234375</ele>
        <time>2013-08-31T06:59:12Z</time>
      </trkpt>
      <trkpt lat="14.171159975230694" lon="101.434527179226279">
        <ele>18.883056640625</ele>
        <time>2013-08-31T06:59:21Z</time>
      </trkpt>
      <trkpt lat="14.170698970556259" lon="101.433879844844341">
        <ele>18.40234375</ele>
        <time>2013-08-31T06:59:35Z</time>
      </trkpt>
      <trkpt lat="14.169915765523911" lon="101.433320101350546">
        <ele>16.96044921875</ele>
        <time>2013-08-31T06:59:53Z</time>
      </trkpt>
      <trkpt lat="14.169136080890894" lon="101.432167170569301">
        <ele>15.0377197265625</ele>
        <time>2013-08-31T07:00:19Z</time>
      </trkpt>
      <trkpt lat="14.168907338753343" lon="101.432041609659791">
        <ele>15.0377197265625</ele>
        <time>2013-08-31T07:00:24Z</time>
      </trkpt>
      <trkpt lat="14.167486606165767" lon="101.432126266881824">
        <ele>16.479736328125</ele>
        <time>2013-08-31T07:00:55Z</time>
      </trkpt>
      <trkpt lat="14.165868060663342" lon="101.433788230642676">
        <ele>17.441162109375</ele>
        <time>2013-08-31T07:01:38Z</time>
      </trkpt>
      <trkpt lat="14.165331367403269" lon="101.434104982763529">
        <ele>17.9217529296875</ele>
        <time>2013-08-31T07:01:50Z</time>
      </trkpt>
      <trkpt lat="14.164074836298823" lon="101.434143371880054">
        <ele>15.0377197265625</ele>
        <time>2013-08-31T07:02:19Z</time>
      </trkpt>
      <trkpt lat="14.162613870576024" lon="101.43335061147809">
        <ele>14.5570068359375</ele>
        <time>2013-08-31T07:02:50Z</time>
      </trkpt>
      <trkpt lat="14.162359060719609" lon="101.432985914871097">
        <ele>15.0377197265625</ele>
        <time>2013-08-31T07:02:58Z</time>
      </trkpt>
      <trkpt lat="14.162247497588396" lon="101.432510996237397">
        <ele>16.479736328125</ele>
        <time>2013-08-31T07:03:08Z</time>
      </trkpt>
      <trkpt lat="14.16206544265151" lon="101.432403037324548">
        <ele>16.479736328125</ele>
        <time>2013-08-31T07:03:13Z</time>
      </trkpt>
      <trkpt lat="14.160990128293633" lon="101.432394739240408">
        <ele>15.9990234375</ele>
        <time>2013-08-31T07:03:34Z</time>
      </trkpt>
      <trkpt lat="14.1602389421314" lon="101.432129787281156">
        <ele>14.5570068359375</ele>
        <time>2013-08-31T07:03:49Z</time>
      </trkpt>
      <trkpt lat="14.158984590321779" lon="101.432554833590984">
        <ele>15.0377197265625</ele>
        <time>2013-08-31T07:04:14Z</time>
      </trkpt>
      <trkpt lat="14.157760497182608" lon="101.432872759178281">
        <ele>13.5958251953125</ele>
        <time>2013-08-31T07:04:38Z</time>
      </trkpt>
      <trkpt lat="14.157028002664447" lon="101.432604119181633">
        <ele>12.15380859375</ele>
        <time>2013-08-31T07:04:55Z</time>
      </trkpt>
      <trkpt lat="14.154632538557053" lon="101.432756502181292">
        <ele>11.6732177734375</ele>
        <time>2013-08-31T07:05:37Z</time>
      </trkpt>
      <trkpt lat="14.1543900500983" lon="101.432495908811688">
        <ele>12.15380859375</ele>
        <time>2013-08-31T07:05:44Z</time>
      </trkpt>
      <trkpt lat="14.154380830004811" lon="101.432266915217042">
        <ele>13.1151123046875</ele>
        <time>2013-08-31T07:05:48Z</time>
      </trkpt>
      <trkpt lat="14.154264824464917" lon="101.432110592722893">
        <ele>13.5958251953125</ele>
        <time>2013-08-31T07:05:52Z</time>
      </trkpt>
      <trkpt lat="14.15318070910871" lon="101.431453870609403">
        <ele>15.5184326171875</ele>
        <time>2013-08-31T07:06:18Z</time>
      </trkpt>
      <trkpt lat="14.152825903147459" lon="101.43063479103148">
        <ele>15.0377197265625</ele>
        <time>2013-08-31T07:06:36Z</time>
      </trkpt>
      <trkpt lat="14.152159709483385" lon="101.43031183630228">
        <ele>13.5958251953125</ele>
        <time>2013-08-31T07:06:51Z</time>
      </trkpt>
      <trkpt lat="14.149815877899528" lon="101.430685753002763">
        <ele>15.0377197265625</ele>
        <time>2013-08-31T07:07:40Z</time>
      </trkpt>
      <trkpt lat="14.148549372330308" lon="101.43098171800375">
        <ele>9.7506103515625</ele>
        <time>2013-08-31T07:10:13Z</time>
      </trkpt>
      <trkpt lat="14.147597355768085" lon="101.430963780730963">
        <ele>9.7506103515625</ele>
        <time>2013-08-31T07:10:34Z</time>
      </trkpt>
      <trkpt lat="14.147313125431538" lon="101.430820198729634">
        <ele>10.231201171875</ele>
        <time>2013-08-31T07:10:41Z</time>
      </trkpt>
      <trkpt lat="14.147167699411511" lon="101.430561114102602">
        <ele>12.15380859375</ele>
        <time>2013-08-31T07:10:48Z</time>
      </trkpt>
      <trkpt lat="14.147030906751752" lon="101.428728997707367">
        <ele>24.1702880859375</ele>
        <time>2013-08-31T07:11:42Z</time>
      </trkpt>
      <trkpt lat="14.148493045940995" lon="101.428358182311058">
        <ele>23.6895751953125</ele>
        <time>2013-08-31T07:12:19Z</time>
      </trkpt>
      <trkpt lat="14.149613119661808" lon="101.428267071023583">
        <ele>22.728271484375</ele>
        <time>2013-08-31T07:12:42Z</time>
      </trkpt>
      <trkpt lat="14.151055309921503" lon="101.427692156285048">
        <ele>23.208984375</ele>
        <time>2013-08-31T07:13:17Z</time>
      </trkpt>
      <trkpt lat="14.15168940089643" lon="101.426951279863715">
        <ele>23.208984375</ele>
        <time>2013-08-31T07:13:38Z</time>
      </trkpt>
      <trkpt lat="14.152132049202919" lon="101.426189700141549">
        <ele>23.208984375</ele>
        <time>2013-08-31T07:13:57Z</time>
      </trkpt>
      <trkpt lat="14.152229027822614" lon="101.425753338262439">
        <ele>26.5736083984375</ele>
        <time>2013-08-31T07:14:07Z</time>
      </trkpt>
      <trkpt lat="14.153057243674994" lon="101.424844656139612">
        <ele>26.0928955078125</ele>
        <time>2013-08-31T07:14:35Z</time>
      </trkpt>
      <trkpt lat="14.15321784093976" lon="101.424014093354344">
        <ele>26.5736083984375</ele>
        <time>2013-08-31T07:15:09Z</time>
      </trkpt>
      <trkpt lat="14.152942579239607" lon="101.423480417579412">
        <ele>33.3028564453125</ele>
        <time>2013-08-31T07:15:42Z</time>
      </trkpt>
      <trkpt lat="14.152982896193862" lon="101.42317439429462">
        <ele>36.186767578125</ele>
        <time>2013-08-31T07:15:57Z</time>
      </trkpt>
      <trkpt lat="14.152793968096375" lon="101.422411305829883">
        <ele>37.628662109375</ele>
        <time>2013-08-31T07:16:26Z</time>
      </trkpt>
      <trkpt lat="14.152267081663013" lon="101.421259297057986">
        <ele>39.0706787109375</ele>
        <time>2013-08-31T07:17:15Z</time>
      </trkpt>
      <trkpt lat="14.152410328388214" lon="101.419835295528173">
        <ele>42.916015625</ele>
        <time>2013-08-31T07:18:27Z</time>
      </trkpt>
      <trkpt lat="14.151533832773566" lon="101.419394155964255">
        <ele>38.109375</ele>
        <time>2013-08-31T07:18:56Z</time>
      </trkpt>
      <trkpt lat="14.151218086481094" lon="101.418223707005382">
        <ele>36.66748046875</ele>
        <time>2013-08-31T07:19:33Z</time>
      </trkpt>
      <trkpt lat="14.150065742433071" lon="101.418194035068154">
        <ele>31.8607177734375</ele>
        <time>2013-08-31T07:19:57Z</time>
      </trkpt>
      <trkpt lat="14.148231614381075" lon="101.417824309319258">
        <ele>13.5958251953125</ele>
        <time>2013-08-31T07:20:28Z</time>
      </trkpt>
      <trkpt lat="14.147962806746364" lon="101.418130081146955">
        <ele>15.0377197265625</ele>
        <time>2013-08-31T07:20:38Z</time>
      </trkpt>
      <trkpt lat="14.14772417396307" lon="101.41818012110889">
        <ele>15.5184326171875</ele>
        <time>2013-08-31T07:20:44Z</time>
      </trkpt>
      <trkpt lat="14.14659689180553" lon="101.418004855513573">
        <ele>15.5184326171875</ele>
        <time>2013-08-31T07:21:07Z</time>
      </trkpt>
      <trkpt lat="14.146550372242928" lon="101.417887676507235">
        <ele>15.5184326171875</ele>
        <time>2013-08-31T07:21:11Z</time>
      </trkpt>
      <trkpt lat="14.14662329480052" lon="101.416150107979774">
        <ele>18.40234375</ele>
        <time>2013-08-31T07:21:54Z</time>
      </trkpt>
      <trkpt lat="14.146380051970482" lon="101.41570620238781">
        <ele>18.883056640625</ele>
        <time>2013-08-31T07:22:19Z</time>
      </trkpt>
      <trkpt lat="14.146098420023918" lon="101.415880294516683">
        <ele>20.324951171875</ele>
        <time>2013-08-31T07:24:58Z</time>
      </trkpt>
      <trkpt lat="14.146343087777495" lon="101.415814580395818">
        <ele>17.441162109375</ele>
        <time>2013-08-31T07:25:46Z</time>
      </trkpt>
      <trkpt lat="14.146327329799533" lon="101.415662197396159">
        <ele>19.36376953125</ele>
        <time>2013-08-31T07:26:01Z</time>
      </trkpt>
      <trkpt lat="14.146759416908026" lon="101.414959290996194">
        <ele>18.883056640625</ele>
        <time>2013-08-31T07:26:43Z</time>
      </trkpt>
      <trkpt lat="14.147090753540397" lon="101.414997093379498">
        <ele>19.8443603515625</ele>
        <time>2013-08-31T07:27:09Z</time>
      </trkpt>
      <trkpt lat="14.147504400461912" lon="101.415044954046607">
        <ele>19.36376953125</ele>
        <time>2013-08-31T07:27:23Z</time>
      </trkpt>
      <trkpt lat="14.14781553670764" lon="101.415359526872635">
        <ele>19.36376953125</ele>
        <time>2013-08-31T07:27:37Z</time>
      </trkpt>
      <trkpt lat="14.148294981569052" lon="101.415282916277647">
        <ele>19.36376953125</ele>
        <time>2013-08-31T07:28:07Z</time>
      </trkpt>
      <trkpt lat="14.147941935807467" lon="101.415390120819211">
        <ele>17.9217529296875</ele>
        <time>2013-08-31T07:28:21Z</time>
      </trkpt>
      <trkpt lat="14.147372636944056" lon="101.415022742003202">
        <ele>20.324951171875</ele>
        <time>2013-08-31T07:28:37Z</time>
      </trkpt>
      <trkpt lat="14.147022943943739" lon="101.415009498596191">
        <ele>21.286376953125</ele>
        <time>2013-08-31T07:28:50Z</time>
      </trkpt>
      <trkpt lat="14.146828064695001" lon="101.414937498047948">
        <ele>19.36376953125</ele>
        <time>2013-08-31T07:28:58Z</time>
      </trkpt>
      <trkpt lat="14.14714565500617" lon="101.414490155875683">
        <ele>20.8056640625</ele>
        <time>2013-08-31T07:29:18Z</time>
      </trkpt>
      <trkpt lat="14.147655945271254" lon="101.414280608296394">
        <ele>21.286376953125</ele>
        <time>2013-08-31T07:29:33Z</time>
      </trkpt>
      <trkpt lat="14.147920813411474" lon="101.414427878335118">
        <ele>20.8056640625</ele>
        <time>2013-08-31T07:29:43Z</time>
      </trkpt>
      <trkpt lat="14.147997507825494" lon="101.414311621338129">
        <ele>19.36376953125</ele>
        <time>2013-08-31T07:29:48Z</time>
      </trkpt>
      <trkpt lat="14.148393049836159" lon="101.413016868755221">
        <ele>19.36376953125</ele>
        <time>2013-08-31T07:30:35Z</time>
      </trkpt>
      <trkpt lat="14.148625480011106" lon="101.411493457853794">
        <ele>28.4962158203125</ele>
        <time>2013-08-31T07:31:35Z</time>
      </trkpt>
      <trkpt lat="14.148417105898261" lon="101.411385666579008">
        <ele>31.8607177734375</ele>
        <time>2013-08-31T07:31:50Z</time>
      </trkpt>
      <trkpt lat="14.148213928565383" lon="101.411244599148631">
        <ele>29.45751953125</ele>
        <time>2013-08-31T07:32:06Z</time>
      </trkpt>
      <trkpt lat="14.148597316816449" lon="101.410235837101936">
        <ele>31.8607177734375</ele>
        <time>2013-08-31T07:33:09Z</time>
      </trkpt>
      <trkpt lat="14.148470833897591" lon="101.409917492419481">
        <ele>29.45751953125</ele>
        <time>2013-08-31T07:33:29Z</time>
      </trkpt>
      <trkpt lat="14.148533111438155" lon="101.408933289349079">
        <ele>39.0706787109375</ele>
        <time>2013-08-31T07:34:17Z</time>
      </trkpt>
      <trkpt lat="14.14862715639174" lon="101.407661670818925">
        <ele>45.7999267578125</ele>
        <time>2013-08-31T07:35:15Z</time>
      </trkpt>
      <trkpt lat="14.147630464285612" lon="101.407383643090725">
        <ele>46.76123046875</ele>
        <time>2013-08-31T07:36:12Z</time>
      </trkpt>
      <trkpt lat="14.147370373830199" lon="101.406650226563215">
        <ele>56.37451171875</ele>
        <time>2013-08-31T07:36:48Z</time>
      </trkpt>
      <trkpt lat="14.148079231381416" lon="101.406281590461731">
        <ele>55.4130859375</ele>
        <time>2013-08-31T07:37:17Z</time>
      </trkpt>
      <trkpt lat="14.155331337824464" lon="101.403560489416122">
        <ele>65.507080078125</ele>
        <time>2013-08-31T07:46:00Z</time>
      </trkpt>
      <trkpt lat="14.155830899253488" lon="101.40347583219409">
        <ele>63.5843505859375</ele>
        <time>2013-08-31T07:46:16Z</time>
      </trkpt>
      <trkpt lat="14.158020503818989" lon="101.402150401845574">
        <ele>64.0650634765625</ele>
        <time>2013-08-31T07:48:04Z</time>
      </trkpt>
      <trkpt lat="14.158529536798596" lon="101.401559310033917">
        <ele>62.6229248046875</ele>
        <time>2013-08-31T07:48:39Z</time>
      </trkpt>
      <trkpt lat="14.159428328275681" lon="101.401147758588195">
        <ele>63.1036376953125</ele>
        <time>2013-08-31T07:49:33Z</time>
      </trkpt>
      <trkpt lat="14.159744745120406" lon="101.400241423398256">
        <ele>74.1588134765625</ele>
        <time>2013-08-31T07:50:24Z</time>
      </trkpt>
      <trkpt lat="14.160039201378822" lon="101.399708334356546">
        <ele>76.5621337890625</ele>
        <time>2013-08-31T07:51:18Z</time>
      </trkpt>
      <trkpt lat="14.16057656519115" lon="101.399227129295468">
        <ele>83.77197265625</ele>
        <time>2013-08-31T07:52:09Z</time>
      </trkpt>
      <trkpt lat="14.161568563431501" lon="101.398994866758585">
        <ele>84.7333984375</ele>
        <time>2013-08-31T07:48:17Z</time>
      </trkpt>
      <trkpt lat="14.161917082965374" lon="101.398457083851099">
        <ele>89.5399169921875</ele>
        <time>2013-08-31T07:48:56Z</time>
      </trkpt>
      <trkpt lat="14.162164684385061" lon="101.398333450779319">
        <ele>91.9432373046875</ele>
        <time>2013-08-31T07:49:12Z</time>
      </trkpt>
      <trkpt lat="14.162938585504889" lon="101.397351929917932">
        <ele>95.7884521484375</ele>
        <time>2013-08-31T07:50:09Z</time>
      </trkpt>
      <trkpt lat="14.162978986278176" lon="101.397040458396077">
        <ele>96.7498779296875</ele>
        <time>2013-08-31T07:50:25Z</time>
      </trkpt>
      <trkpt lat="14.163636211305857" lon="101.395932119339705">
        <ele>101.07568359375</ele>
        <time>2013-08-31T07:51:15Z</time>
      </trkpt>
      <trkpt lat="14.164916882291436" lon="101.395328119397163">
        <ele>110.6888427734375</ele>
        <time>2013-08-31T07:52:37Z</time>
      </trkpt>
      <trkpt lat="14.166030501946807" lon="101.394918328151107">
        <ele>123.666748046875</ele>
        <time>2013-08-31T07:53:59Z</time>
      </trkpt>
      <trkpt lat="14.16692677885294" lon="101.394924111664295">
        <ele>131.3572998046875</ele>
        <time>2013-08-31T07:55:08Z</time>
      </trkpt>
      <trkpt lat="14.167253253981471" lon="101.394679946824908">
        <ele>137.125244140625</ele>
        <time>2013-08-31T07:55:53Z</time>
      </trkpt>
      <trkpt lat="14.170099077746272" lon="101.393436826765537">
        <ele>166.926025390625</ele>
        <time>2013-08-31T08:00:06Z</time>
      </trkpt>
      <trkpt lat="14.170375512912869" lon="101.393493739888072">
        <ele>170.2906494140625</ele>
        <time>2013-08-31T08:00:28Z</time>
      </trkpt>
      <trkpt lat="14.172267476096749" lon="101.393032483756542">
        <ele>183.2684326171875</ele>
        <time>2013-08-31T08:03:49Z</time>
      </trkpt>
      <trkpt lat="14.172790674492717" lon="101.392773231491446">
        <ele>183.2684326171875</ele>
        <time>2013-08-31T08:04:34Z</time>
      </trkpt>
      <trkpt lat="14.173871856182814" lon="101.392837772145867">
        <ele>197.20751953125</ele>
        <time>2013-08-31T08:07:09Z</time>
      </trkpt>
      <trkpt lat="14.1741316113621" lon="101.393273714929819">
        <ele>197.688232421875</ele>
        <time>2013-08-31T08:07:40Z</time>
      </trkpt>
      <trkpt lat="14.174920013174415" lon="101.393299950286746">
        <ele>210.1854248046875</ele>
        <time>2013-08-31T08:09:49Z</time>
      </trkpt>
      <trkpt lat="14.175843363627791" lon="101.393258543685079">
        <ele>215.47265625</ele>
        <time>2013-08-31T08:11:09Z</time>
      </trkpt>
      <trkpt lat="14.176215352490544" lon="101.393554089590907">
        <ele>223.643798828125</ele>
        <time>2013-08-31T08:13:25Z</time>
      </trkpt>
      <trkpt lat="14.176762606948614" lon="101.393707394599915">
        <ele>230.373046875</ele>
        <time>2013-08-31T08:14:03Z</time>
      </trkpt>
      <trkpt lat="14.177051363512874" lon="101.393729355186224">
        <ele>233.257080078125</ele>
        <time>2013-08-31T08:14:24Z</time>
      </trkpt>
      <trkpt lat="14.177684113383293" lon="101.393873691558838">
        <ele>238.0635986328125</ele>
        <time>2013-08-31T08:15:16Z</time>
      </trkpt>
      <trkpt lat="14.178182417526841" lon="101.393075818195939">
        <ele>244.312255859375</ele>
        <time>2013-08-31T08:16:21Z</time>
      </trkpt>
      <trkpt lat="14.17960474267602" lon="101.392474919557571">
        <ele>271.709716796875</ele>
        <time>2013-08-31T08:20:04Z</time>
      </trkpt>
      <trkpt lat="14.180346205830574" lon="101.391869829967618">
        <ele>288.05224609375</ele>
        <time>2013-08-31T08:23:00Z</time>
      </trkpt>
      <trkpt lat="14.180379817262292" lon="101.391742592677474">
        <ele>290.9361572265625</ele>
        <time>2013-08-31T08:24:30Z</time>
      </trkpt>
      <trkpt lat="14.180589783936739" lon="101.391415363177657">
        <ele>292.8587646484375</ele>
        <time>2013-08-31T08:24:55Z</time>
      </trkpt>
      <trkpt lat="14.180646445602179" lon="101.390956537798047">
        <ele>297.6654052734375</ele>
        <time>2013-08-31T08:25:55Z</time>
      </trkpt>
      <trkpt lat="14.18120451271534" lon="101.3900678884238">
        <ele>301.5106201171875</ele>
        <time>2013-08-31T08:27:07Z</time>
      </trkpt>
      <trkpt lat="14.181329067796469" lon="101.388908755034208">
        <ele>306.3172607421875</ele>
        <time>2013-08-31T08:28:25Z</time>
      </trkpt>
      <trkpt lat="14.182145465165377" lon="101.386501891538501">
        <ele>332.2728271484375</ele>
        <time>2013-08-31T08:38:19Z</time>
      </trkpt>
      <trkpt lat="14.182104729115963" lon="101.386200059205294">
        <ele>329.8695068359375</ele>
        <time>2013-08-31T08:38:34Z</time>
      </trkpt>
      <trkpt lat="14.181959219276905" lon="101.386053459718823">
        <ele>325.5435791015625</ele>
        <time>2013-08-31T08:38:47Z</time>
      </trkpt>
      <trkpt lat="14.18158371001482" lon="101.386280609294772">
        <ele>321.6983642578125</ele>
        <time>2013-08-31T08:39:52Z</time>
      </trkpt>
      <trkpt lat="14.181102588772774" lon="101.386237693950534">
        <ele>312.5657958984375</ele>
        <time>2013-08-31T08:41:39Z</time>
      </trkpt>
      <trkpt lat="14.179522432386875" lon="101.386561989784241">
        <ele>293.820068359375</ele>
        <time>2013-08-31T08:46:53Z</time>
      </trkpt>
      <trkpt lat="14.179048603400588" lon="101.38617005199194">
        <ele>283.7261962890625</ele>
        <time>2013-08-31T08:47:27Z</time>
      </trkpt>
      <trkpt lat="14.178673010319471" lon="101.386242220178246">
        <ele>276.03564453125</ele>
        <time>2013-08-31T08:47:53Z</time>
      </trkpt>
      <trkpt lat="14.178374530747533" lon="101.386060416698456">
        <ele>269.3065185546875</ele>
        <time>2013-08-31T08:48:15Z</time>
      </trkpt>
      <trkpt lat="14.177565844729543" lon="101.386041808873415">
        <ele>259.212646484375</ele>
        <time>2013-08-31T08:48:50Z</time>
      </trkpt>
      <trkpt lat="14.177270131185651" lon="101.386141804978251">
        <ele>258.73193359375</ele>
        <time>2013-08-31T08:48:59Z</time>
      </trkpt>
      <trkpt lat="14.17713375762105" lon="101.386376246809959">
        <ele>258.73193359375</ele>
        <time>2013-08-31T08:49:10Z</time>
      </trkpt>
      <trkpt lat="14.177124705165625" lon="101.386884022504091">
        <ele>256.809326171875</ele>
        <time>2013-08-31T08:49:32Z</time>
      </trkpt>
      <trkpt lat="14.176863692700863" lon="101.387064484879375">
        <ele>256.3287353515625</ele>
        <time>2013-08-31T08:49:44Z</time>
      </trkpt>
      <trkpt lat="14.176343008875847" lon="101.386954849585891">
        <ele>253.9254150390625</ele>
        <time>2013-08-31T08:50:03Z</time>
      </trkpt>
      <trkpt lat="14.175905641168356" lon="101.386678079143167">
        <ele>250.560791015625</ele>
        <time>2013-08-31T08:50:19Z</time>
      </trkpt>
      <trkpt lat="14.175634821876884" lon="101.386419162154198">
        <ele>244.312255859375</ele>
        <time>2013-08-31T08:50:38Z</time>
      </trkpt>
      <trkpt lat="14.174763271585107" lon="101.386642036959529">
        <ele>238.5443115234375</ele>
        <time>2013-08-31T08:51:12Z</time>
      </trkpt>
      <trkpt lat="14.17435054667294" lon="101.386221768334508">
        <ele>239.02490234375</ele>
        <time>2013-08-31T08:51:37Z</time>
      </trkpt>
      <trkpt lat="14.173954082652926" lon="101.386054046452045">
        <ele>238.0635986328125</ele>
        <time>2013-08-31T08:51:50Z</time>
      </trkpt>
      <trkpt lat="14.173735231161118" lon="101.386049352586269">
        <ele>234.6990966796875</ele>
        <time>2013-08-31T08:52:00Z</time>
      </trkpt>
      <trkpt lat="14.17344412766397" lon="101.386201484128833">
        <ele>227.9697265625</ele>
        <time>2013-08-31T08:52:24Z</time>
      </trkpt>
      <trkpt lat="14.173076413571835" lon="101.38617935590446">
        <ele>222.2017822265625</ele>
        <time>2013-08-31T08:52:41Z</time>
      </trkpt>
      <trkpt lat="14.172892346978188" lon="101.386555703356862">
        <ele>214.51123046875</ele>
        <time>2013-08-31T08:53:01Z</time>
      </trkpt>
      <trkpt lat="14.1726378723979" lon="101.386771285906434">
        <ele>212.588623046875</ele>
        <time>2013-08-31T08:53:19Z</time>
      </trkpt>
      <trkpt lat="14.172522285953164" lon="101.386886704713106">
        <ele>206.8206787109375</ele>
        <time>2013-08-31T08:54:26Z</time>
      </trkpt>
      <trkpt lat="14.171134913340211" lon="101.386982593685389">
        <ele>191.4395751953125</ele>
        <time>2013-08-31T08:56:00Z</time>
      </trkpt>
      <trkpt lat="14.170699724927545" lon="101.387330694124103">
        <ele>183.2684326171875</ele>
        <time>2013-08-31T08:57:12Z</time>
      </trkpt>
      <trkpt lat="14.170362940058112" lon="101.387319462373853">
        <ele>179.4232177734375</ele>
        <time>2013-08-31T08:57:31Z</time>
      </trkpt>
      <trkpt lat="14.17024995200336" lon="101.387426164001226">
        <ele>181.826416015625</ele>
        <time>2013-08-31T08:57:59Z</time>
      </trkpt>
      <trkpt lat="14.170199744403362" lon="101.387580810114741">
        <ele>180.384521484375</ele>
        <time>2013-08-31T08:58:41Z</time>
      </trkpt>
      <trkpt lat="14.170098239555955" lon="101.387666976079345">
        <ele>180.865234375</ele>
        <time>2013-08-31T08:58:54Z</time>
      </trkpt>
      <trkpt lat="14.169954070821404" lon="101.387694887816906">
        <ele>183.7490234375</ele>
        <time>2013-08-31T08:59:13Z</time>
      </trkpt>
      <trkpt lat="14.169745529070497" lon="101.387630514800549">
        <ele>182.787841796875</ele>
        <time>2013-08-31T09:00:11Z</time>
      </trkpt>
      <trkpt lat="14.169608820229769" lon="101.387785831466317">
        <ele>183.7490234375</ele>
        <time>2013-08-31T09:01:12Z</time>
      </trkpt>
      <trkpt lat="14.169289218261838" lon="101.38777962885797">
        <ele>178.942626953125</ele>
        <time>2013-08-31T09:01:25Z</time>
      </trkpt>
      <trkpt lat="14.168540881946683" lon="101.388512039557099">
        <ele>172.2132568359375</ele>
        <time>2013-08-31T09:02:06Z</time>
      </trkpt>
      <trkpt lat="14.168305937200785" lon="101.388680264353752">
        <ele>167.8873291015625</ele>
        <time>2013-08-31T09:02:23Z</time>
      </trkpt>
      <trkpt lat="14.166271733120084" lon="101.389045463874936">
        <ele>151.544921875</ele>
        <time>2013-08-31T09:04:27Z</time>
      </trkpt>
      <trkpt lat="14.16623443365097" lon="101.389242438599467">
        <ele>150.5836181640625</ele>
        <time>2013-08-31T09:04:37Z</time>
      </trkpt>
      <trkpt lat="14.166200654581189" lon="101.389081589877605">
        <ele>150.5836181640625</ele>
        <time>2013-08-31T09:04:44Z</time>
      </trkpt>
      <trkpt lat="14.166085654869676" lon="101.389070693403482">
        <ele>149.622314453125</ele>
        <time>2013-08-31T09:04:49Z</time>
      </trkpt>
      <trkpt lat="14.164984691888094" lon="101.389659522101283">
        <ele>134.721923828125</ele>
        <time>2013-08-31T09:05:05Z</time>
      </trkpt>
      <trkpt lat="14.163375366479158" lon="101.390168303623796">
        <ele>118.860107421875</ele>
        <time>2013-08-31T09:05:20Z</time>
      </trkpt>
      <trkpt lat="14.162338357418776" lon="101.390231419354677">
        <ele>115.014892578125</ele>
        <time>2013-08-31T09:05:31Z</time>
      </trkpt>
      <trkpt lat="14.161947928369045" lon="101.390082640573382">
        <ele>115.9761962890625</ele>
        <time>2013-08-31T09:05:46Z</time>
      </trkpt>
      <trkpt lat="14.161956226453185" lon="101.390209374949336">
        <ele>102.037109375</ele>
        <time>2013-08-31T08:03:59Z</time>
      </trkpt>
      <trkpt lat="14.161965027451515" lon="101.390157407149673">
        <ele>104.4404296875</ele>
        <time>2013-08-31T08:04:19Z</time>
      </trkpt>
      <trkpt lat="14.161777943372726" lon="101.389834368601441">
        <ele>106.363037109375</ele>
        <time>2013-08-31T08:04:35Z</time>
      </trkpt>
      <trkpt lat="14.161726143211126" lon="101.389845013618469">
        <ele>107.3243408203125</ele>
        <time>2013-08-31T08:04:39Z</time>
      </trkpt>
      <trkpt lat="14.161707116290927" lon="101.389684919267893">
        <ele>107.3243408203125</ele>
        <time>2013-08-31T08:04:45Z</time>
      </trkpt>
      <trkpt lat="14.160599699243903" lon="101.389018055051565">
        <ele>106.8436279296875</ele>
        <time>2013-08-31T08:05:09Z</time>
      </trkpt>
      <trkpt lat="14.160446729511023" lon="101.388685964047909">
        <ele>106.363037109375</ele>
        <time>2013-08-31T08:05:15Z</time>
      </trkpt>
      <trkpt lat="14.160022018477321" lon="101.38656442053616">
        <ele>114.0535888671875</ele>
        <time>2013-08-31T08:06:45Z</time>
      </trkpt>
      <trkpt lat="14.160002237185836" lon="101.385507714003325">
        <ele>117.418212890625</ele>
        <time>2013-08-31T08:07:46Z</time>
      </trkpt>
      <trkpt lat="14.15954802185297" lon="101.384945791214705">
        <ele>122.7054443359375</ele>
        <time>2013-08-31T08:08:29Z</time>
      </trkpt>
      <trkpt lat="14.159498317167163" lon="101.384561564773321">
        <ele>126.5506591796875</ele>
        <time>2013-08-31T08:08:52Z</time>
      </trkpt>
      <trkpt lat="14.15975765325129" lon="101.383925629779696">
        <ele>139.0478515625</ele>
        <time>2013-08-31T08:09:32Z</time>
      </trkpt>
      <trkpt lat="14.159895787015557" lon="101.383568057790399">
        <ele>143.3736572265625</ele>
        <time>2013-08-31T08:09:51Z</time>
      </trkpt>
      <trkpt lat="14.160198792815208" lon="101.382310017943382">
        <ele>139.5284423828125</ele>
        <time>2013-08-31T08:10:34Z</time>
      </trkpt>
      <trkpt lat="14.159870306029916" lon="101.382166352123022">
        <ele>137.6058349609375</ele>
        <time>2013-08-31T08:10:43Z</time>
      </trkpt>
      <trkpt lat="14.158033914864063" lon="101.383117781952024">
        <ele>129.915283203125</ele>
        <time>2013-08-31T08:11:18Z</time>
      </trkpt>
      <trkpt lat="14.156360970810056" lon="101.383588341996074">
        <ele>126.0699462890625</ele>
        <time>2013-08-31T08:11:44Z</time>
      </trkpt>
      <trkpt lat="14.156037680804729" lon="101.383553389459848">
        <ele>124.1473388671875</ele>
        <time>2013-08-31T08:11:51Z</time>
      </trkpt>
      <trkpt lat="14.153553703799844" lon="101.382573377341032">
        <ele>124.1473388671875</ele>
        <time>2013-08-31T08:13:23Z</time>
      </trkpt>
      <trkpt lat="14.153482206165791" lon="101.381399994716048">
        <ele>132.318603515625</ele>
        <time>2013-08-31T08:14:14Z</time>
      </trkpt>
      <trkpt lat="14.153504418209195" lon="101.380807058885694">
        <ele>132.79931640625</ele>
        <time>2013-08-31T08:14:40Z</time>
      </trkpt>
      <trkpt lat="14.153407774865627" lon="101.380484607070684">
        <ele>134.721923828125</ele>
        <time>2013-08-31T08:15:08Z</time>
      </trkpt>
      <trkpt lat="14.153341809287667" lon="101.38035099953413">
        <ele>133.760498046875</ele>
        <time>2013-08-31T08:15:27Z</time>
      </trkpt>
      <trkpt lat="14.152255346998572" lon="101.380418809130788">
        <ele>131.3572998046875</ele>
        <time>2013-08-31T08:16:07Z</time>
      </trkpt>
      <trkpt lat="14.15078884921968" lon="101.379876751452684">
        <ele>128.473388671875</ele>
        <time>2013-08-31T08:16:53Z</time>
      </trkpt>
      <trkpt lat="14.149664249271154" lon="101.379795111715794">
        <ele>130.876708984375</ele>
        <time>2013-08-31T08:17:29Z</time>
      </trkpt>
      <trkpt lat="14.148447616025805" lon="101.379923857748508">
        <ele>129.915283203125</ele>
        <time>2013-08-31T08:18:03Z</time>
      </trkpt>
      <trkpt lat="14.147796425968409" lon="101.379982028156519">
        <ele>128.9541015625</ele>
        <time>2013-08-31T08:18:23Z</time>
      </trkpt>
      <trkpt lat="14.147609090432525" lon="101.379860490560532">
        <ele>129.915283203125</ele>
        <time>2013-08-31T08:18:33Z</time>
      </trkpt>
      <trkpt lat="14.147442793473601" lon="101.37934491969645">
        <ele>132.79931640625</ele>
        <time>2013-08-31T08:19:07Z</time>
      </trkpt>
      <trkpt lat="14.147353610023856" lon="101.378673864528537">
        <ele>126.0699462890625</ele>
        <time>2013-08-31T08:19:43Z</time>
      </trkpt>
      <trkpt lat="14.147177003324032" lon="101.37858166359365">
        <ele>126.0699462890625</ele>
        <time>2013-08-31T08:19:53Z</time>
      </trkpt>
      <trkpt lat="14.146825382485986" lon="101.379002770408988">
        <ele>125.1087646484375</ele>
        <time>2013-08-31T08:20:12Z</time>
      </trkpt>
      <trkpt lat="14.145986186340451" lon="101.382643366232514">
        <ele>130.39599609375</ele>
        <time>2013-08-31T08:22:31Z</time>
      </trkpt>
      <trkpt lat="14.146235547959805" lon="101.383068161085248">
        <ele>129.4346923828125</ele>
        <time>2013-08-31T08:23:11Z</time>
      </trkpt>
      <trkpt lat="14.145763143897057" lon="101.385287018492818">
        <ele>120.7828369140625</ele>
        <time>2013-08-31T08:24:44Z</time>
      </trkpt>
      <trkpt lat="14.145896583795547" lon="101.385710639879107">
        <ele>117.8988037109375</ele>
        <time>2013-08-31T08:25:03Z</time>
      </trkpt>
      <trkpt lat="14.145662058144808" lon="101.386571126058698">
        <ele>115.014892578125</ele>
        <time>2013-08-31T08:25:41Z</time>
      </trkpt>
      <trkpt lat="14.145641857758164" lon="101.387564381584525">
        <ele>117.418212890625</ele>
        <time>2013-08-31T08:26:51Z</time>
      </trkpt>
      <trkpt lat="14.14563917554915" lon="101.388210710138083">
        <ele>115.014892578125</ele>
        <time>2013-08-31T08:27:25Z</time>
      </trkpt>
      <trkpt lat="14.145461563020945" lon="101.388824768364429">
        <ele>107.8050537109375</ele>
        <time>2013-08-31T08:27:58Z</time>
      </trkpt>
      <trkpt lat="14.145671697333455" lon="101.389323575422168">
        <ele>110.6888427734375</ele>
        <time>2013-08-31T08:28:35Z</time>
      </trkpt>
      <trkpt lat="14.145798599347472" lon="101.389992032200098">
        <ele>102.037109375</ele>
        <time>2013-08-31T08:29:47Z</time>
      </trkpt>
      <trkpt lat="14.145520152524114" lon="101.390819745138288">
        <ele>102.998291015625</ele>
        <time>2013-08-31T08:31:44Z</time>
      </trkpt>
      <trkpt lat="14.14546768181026" lon="101.390908341854811">
        <ele>100.114501953125</ele>
        <time>2013-08-31T08:31:53Z</time>
      </trkpt>
      <trkpt lat="14.145765909925103" lon="101.391272451728582">
        <ele>104.4404296875</ele>
        <time>2013-08-31T08:32:55Z</time>
      </trkpt>
      <trkpt lat="14.145683264359832" lon="101.391626754775643">
        <ele>103.959716796875</ele>
        <time>2013-08-31T08:33:19Z</time>
      </trkpt>
      <trkpt lat="14.145756773650646" lon="101.391942501068115">
        <ele>102.037109375</ele>
        <time>2013-08-31T08:33:39Z</time>
      </trkpt>
      <trkpt lat="14.145422000437975" lon="101.393300369381905">
        <ele>98.19189453125</ele>
        <time>2013-08-31T08:35:07Z</time>
      </trkpt>
      <trkpt lat="14.145181607455015" lon="101.394560420885682">
        <ele>88.5787353515625</ele>
        <time>2013-08-31T08:36:40Z</time>
      </trkpt>
      <trkpt lat="14.145361231639981" lon="101.395329628139734">
        <ele>88.0980224609375</ele>
        <time>2013-08-31T08:37:18Z</time>
      </trkpt>
      <trkpt lat="14.145653173327446" lon="101.395734809339046">
        <ele>87.6171875</ele>
        <time>2013-08-31T08:37:55Z</time>
      </trkpt>
      <trkpt lat="14.146751118823886" lon="101.396100092679262">
        <ele>76.5621337890625</ele>
        <time>2013-08-31T08:39:36Z</time>
      </trkpt>
      <trkpt lat="14.146687919273973" lon="101.39734304510057">
        <ele>73.1976318359375</ele>
        <time>2013-08-31T08:40:14Z</time>
      </trkpt>
      <trkpt lat="14.147128975018859" lon="101.39958486892283">
        <ele>78.4847412109375</ele>
        <time>2013-08-31T08:40:53Z</time>
      </trkpt>
      <trkpt lat="14.147206759080291" lon="101.400208985432982">
        <ele>78.4847412109375</ele>
        <time>2013-08-31T08:41:00Z</time>
      </trkpt>
      <trkpt lat="14.147108774632215" lon="101.401036782190204">
        <ele>77.5234375</ele>
        <time>2013-08-31T08:41:10Z</time>
      </trkpt>
      <trkpt lat="14.147814363241196" lon="101.403470719233155">
        <ele>75.1202392578125</ele>
        <time>2013-08-31T08:41:52Z</time>
      </trkpt>
      <trkpt lat="14.146828567609191" lon="101.404452826827765">
        <ele>76.5621337890625</ele>
        <time>2013-08-31T08:42:22Z</time>
      </trkpt>
      <trkpt lat="14.146999977529049" lon="101.406198609620333">
        <ele>74.1588134765625</ele>
        <time>2013-08-31T08:42:58Z</time>
      </trkpt>
      <trkpt lat="14.148204037919641" lon="101.406080424785614">
        <ele>75.1202392578125</ele>
        <time>2013-08-31T08:43:24Z</time>
      </trkpt>
      <trkpt lat="14.149316316470504" lon="101.405769791454077">
        <ele>71.27490234375</ele>
        <time>2013-08-31T08:43:47Z</time>
      </trkpt>
      <trkpt lat="14.153744895011187" lon="101.404132721945643">
        <ele>61.6617431640625</ele>
        <time>2013-08-31T08:46:44Z</time>
      </trkpt>
      <trkpt lat="14.153881100937724" lon="101.404166081920266">
        <ele>54.932373046875</ele>
        <time>2013-08-31T08:51:50Z</time>
      </trkpt>
      <trkpt lat="14.15537073276937" lon="101.408963883295655">
        <ele>58.7777099609375</ele>
        <time>2013-08-31T08:53:59Z</time>
      </trkpt>
      <trkpt lat="14.155301414430141" lon="101.409140406176448">
        <ele>59.7391357421875</ele>
        <time>2013-08-31T08:54:09Z</time>
      </trkpt>
      <trkpt lat="14.15613298304379" lon="101.410008436068892">
        <ele>63.1036376953125</ele>
        <time>2013-08-31T08:55:05Z</time>
      </trkpt>
      <trkpt lat="14.15693823248148" lon="101.41091275960207">
        <ele>62.6229248046875</ele>
        <time>2013-08-31T08:55:45Z</time>
      </trkpt>
      <trkpt lat="14.157599397003651" lon="101.411746507510543">
        <ele>57.3358154296875</ele>
        <time>2013-08-31T08:56:14Z</time>
      </trkpt>
      <trkpt lat="14.158412190154195" lon="101.413312749937177">
        <ele>59.7391357421875</ele>
        <time>2013-08-31T08:57:07Z</time>
      </trkpt>
      <trkpt lat="14.159047203138471" lon="101.414960464462638">
        <ele>58.297119140625</ele>
        <time>2013-08-31T08:58:06Z</time>
      </trkpt>
      <trkpt lat="14.161393884569407" lon="101.417318293824792">
        <ele>35.2254638671875</ele>
        <time>2013-08-31T09:00:36Z</time>
      </trkpt>
      <trkpt lat="14.162180190905929" lon="101.417951043695211">
        <ele>28.9769287109375</ele>
        <time>2013-08-31T09:01:10Z</time>
      </trkpt>
      <trkpt lat="14.162487303838134" lon="101.418509613722563">
        <ele>29.9381103515625</ele>
        <time>2013-08-31T09:01:27Z</time>
      </trkpt>
      <trkpt lat="14.163072779774666" lon="101.418639365583658">
        <ele>29.9381103515625</ele>
        <time>2013-08-31T09:01:52Z</time>
      </trkpt>
      <trkpt lat="14.164278097450733" lon="101.418509697541595">
        <ele>29.45751953125</ele>
        <time>2013-08-31T09:02:14Z</time>
      </trkpt>
      <trkpt lat="14.16670742444694" lon="101.418293192982674">
        <ele>27.0543212890625</ele>
        <time>2013-08-31T09:02:51Z</time>
      </trkpt>
      <trkpt lat="14.170851269736886" lon="101.417707968503237">
        <ele>20.8056640625</ele>
        <time>2013-08-31T09:04:00Z</time>
      </trkpt>
      <trkpt lat="14.171635983511806" lon="101.417307900264859">
        <ele>20.324951171875</ele>
        <time>2013-08-31T09:04:17Z</time>
      </trkpt>
      <trkpt lat="14.172092461958528" lon="101.416713371872902">
        <ele>19.8443603515625</ele>
        <time>2013-08-31T09:04:31Z</time>
      </trkpt>
      <trkpt lat="14.173149168491364" lon="101.414611442014575">
        <ele>20.8056640625</ele>
        <time>2013-08-31T09:05:14Z</time>
      </trkpt>
      <trkpt lat="14.173592571169138" lon="101.413753470405936">
        <ele>20.324951171875</ele>
        <time>2013-08-31T09:05:31Z</time>
      </trkpt>
      <trkpt lat="14.175997003912926" lon="101.411431096494198">
        <ele>23.6895751953125</ele>
        <time>2013-08-31T09:06:32Z</time>
      </trkpt>
      <trkpt lat="14.175475314259529" lon="101.410704636946321">
        <ele>23.6895751953125</ele>
        <time>2013-08-31T09:07:00Z</time>
      </trkpt>
      <trkpt lat="14.1759810782969" lon="101.409407453611493">
        <ele>22.728271484375</ele>
        <time>2013-08-31T09:07:36Z</time>
      </trkpt>
      <trkpt lat="14.1774489171803" lon="101.408335911110044">
        <ele>21.7669677734375</ele>
        <time>2013-08-31T09:08:23Z</time>
      </trkpt>
      <trkpt lat="14.177963063120842" lon="101.407965598627925">
        <ele>18.883056640625</ele>
        <time>2013-08-31T09:08:40Z</time>
      </trkpt>
      <trkpt lat="14.178229859098792" lon="101.407640716060996">
        <ele>19.36376953125</ele>
        <time>2013-08-31T09:08:53Z</time>
      </trkpt>
      <trkpt lat="14.178076302632689" lon="101.407361598685384">
        <ele>21.286376953125</ele>
        <time>2013-08-31T09:09:04Z</time>
      </trkpt>
      <trkpt lat="14.178261375054717" lon="101.406991956755519">
        <ele>23.208984375</ele>
        <time>2013-08-31T09:09:16Z</time>
      </trkpt>
      <trkpt lat="14.178694970905781" lon="101.406453251838684">
        <ele>25.1317138671875</ele>
        <time>2013-08-31T09:09:35Z</time>
      </trkpt>
      <trkpt lat="14.179482869803905" lon="101.405988307669759">
        <ele>23.208984375</ele>
        <time>2013-08-31T09:09:57Z</time>
      </trkpt>
      <trkpt lat="14.179846392944455" lon="101.405243910849094">
        <ele>24.1702880859375</ele>
        <time>2013-08-31T09:10:18Z</time>
      </trkpt>
      <trkpt lat="14.180477047339082" lon="101.405719248577952">
        <ele>24.6510009765625</ele>
        <time>2013-08-31T09:10:41Z</time>
      </trkpt>
      <trkpt lat="14.181020110845566" lon="101.405788818374276">
        <ele>24.6510009765625</ele>
        <time>2013-08-31T09:10:56Z</time>
      </trkpt>
      <trkpt lat="14.181674066931009" lon="101.404149485751987">
        <ele>27.534912109375</ele>
        <time>2013-08-31T09:11:36Z</time>
      </trkpt>
      <trkpt lat="14.18169854208827" lon="101.403559232130647">
        <ele>28.4962158203125</ele>
        <time>2013-08-31T09:11:51Z</time>
      </trkpt>
      <trkpt lat="14.181707426905632" lon="101.403065705671906">
        <ele>27.534912109375</ele>
        <time>2013-08-31T09:12:05Z</time>
      </trkpt>
      <trkpt lat="14.182073548436165" lon="101.40193909406662">
        <ele>29.45751953125</ele>
        <time>2013-08-31T09:12:38Z</time>
      </trkpt>
      <trkpt lat="14.182388288900256" lon="101.401039464399219">
        <ele>29.9381103515625</ele>
        <time>2013-08-31T09:13:02Z</time>
      </trkpt>
      <trkpt lat="14.183408953249454" lon="101.401142226532102">
        <ele>28.4962158203125</ele>
        <time>2013-08-31T09:13:36Z</time>
      </trkpt>
      <trkpt lat="14.183557815849781" lon="101.400731597095728">
        <ele>31.380126953125</ele>
        <time>2013-08-31T09:13:50Z</time>
      </trkpt>
      <trkpt lat="14.184174137189984" lon="101.400861348956823">
        <ele>31.380126953125</ele>
        <time>2013-08-31T09:14:10Z</time>
      </trkpt>
      <trkpt lat="14.184776293113828" lon="101.401005936786532">
        <ele>30.4188232421875</ele>
        <time>2013-08-31T09:14:29Z</time>
      </trkpt>
      <trkpt lat="14.185276944190264" lon="101.400318704545498">
        <ele>28.0155029296875</ele>
        <time>2013-08-31T09:14:49Z</time>
      </trkpt>
      <trkpt lat="14.185552038252354" lon="101.399495098739862">
        <ele>28.0155029296875</ele>
        <time>2013-08-31T09:15:07Z</time>
      </trkpt>
      <trkpt lat="14.185407366603613" lon="101.399059155955911">
        <ele>26.0928955078125</ele>
        <time>2013-08-31T09:15:18Z</time>
      </trkpt>
      <trkpt lat="14.185638036578894" lon="101.398262539878488">
        <ele>27.534912109375</ele>
        <time>2013-08-31T09:15:40Z</time>
      </trkpt>
      <trkpt lat="14.186121756210923" lon="101.397393252700567">
        <ele>26.5736083984375</ele>
        <time>2013-08-31T09:16:03Z</time>
      </trkpt>
      <trkpt lat="14.186993474140763" lon="101.396275609731674">
        <ele>28.4962158203125</ele>
        <time>2013-08-31T09:16:40Z</time>
      </trkpt>
      <trkpt lat="14.187488425523043" lon="101.39577504247427">
        <ele>28.0155029296875</ele>
        <time>2013-08-31T09:16:57Z</time>
      </trkpt>
      <trkpt lat="14.187931828200817" lon="101.395633723586798">
        <ele>26.5736083984375</ele>
        <time>2013-08-31T09:17:11Z</time>
      </trkpt>
      <trkpt lat="14.189044777303934" lon="101.395761296153069">
        <ele>23.208984375</ele>
        <time>2013-08-31T09:17:40Z</time>
      </trkpt>
      <trkpt lat="14.189434200525284" lon="101.39527564868331">
        <ele>24.1702880859375</ele>
        <time>2013-08-31T09:17:55Z</time>
      </trkpt>
      <trkpt lat="14.190722331404686" lon="101.394839705899358">
        <ele>20.8056640625</ele>
        <time>2013-08-31T09:18:29Z</time>
      </trkpt>
      <trkpt lat="14.192338362336159" lon="101.395148076117039">
        <ele>22.24755859375</ele>
        <time>2013-08-31T09:19:06Z</time>
      </trkpt>
      <trkpt lat="14.192254040390253" lon="101.39632036909461">
        <ele>26.0928955078125</ele>
        <time>2013-08-31T09:19:37Z</time>
      </trkpt>
      <trkpt lat="14.192471131682396" lon="101.396898301318288">
        <ele>28.9769287109375</ele>
        <time>2013-08-31T09:19:58Z</time>
      </trkpt>
      <trkpt lat="14.191822456195951" lon="101.398082915693521">
        <ele>27.0543212890625</ele>
        <time>2013-08-31T09:20:30Z</time>
      </trkpt>
      <trkpt lat="14.192090174183249" lon="101.39837896451354">
        <ele>26.0928955078125</ele>
        <time>2013-08-31T09:20:40Z</time>
      </trkpt>
      <trkpt lat="14.191683400422335" lon="101.39924724586308">
        <ele>25.1317138671875</ele>
        <time>2013-08-31T09:21:05Z</time>
      </trkpt>
      <trkpt lat="14.191774260252714" lon="101.400381987914443">
        <ele>25.6123046875</ele>
        <time>2013-08-31T09:21:37Z</time>
      </trkpt>
      <trkpt lat="14.192079110071063" lon="101.400751546025276">
        <ele>26.0928955078125</ele>
        <time>2013-08-31T09:21:50Z</time>
      </trkpt>
      <trkpt lat="14.194244826212525" lon="101.401580600067973">
        <ele>25.1317138671875</ele>
        <time>2013-08-31T09:22:50Z</time>
      </trkpt>
      <trkpt lat="14.194698706269264" lon="101.40183356590569">
        <ele>27.0543212890625</ele>
        <time>2013-08-31T09:23:04Z</time>
      </trkpt>
      <trkpt lat="14.195034820586443" lon="101.402260959148407">
        <ele>27.0543212890625</ele>
        <time>2013-08-31T09:23:18Z</time>
      </trkpt>
      <trkpt lat="14.195661367848516" lon="101.402513841167092">
        <ele>28.0155029296875</ele>
        <time>2013-08-31T09:23:33Z</time>
      </trkpt>
      <trkpt lat="14.197589121758938" lon="101.402795724570751">
        <ele>28.9769287109375</ele>
        <time>2013-08-31T09:24:20Z</time>
      </trkpt>
      <trkpt lat="14.199382849037647" lon="101.403245329856873">
        <ele>30.8995361328125</ele>
        <time>2013-08-31T09:25:03Z</time>
      </trkpt>
      <trkpt lat="14.200082486495376" lon="101.402958417311311">
        <ele>28.4962158203125</ele>
        <time>2013-08-31T09:25:18Z</time>
      </trkpt>
      <trkpt lat="14.203552426770329" lon="101.398554397746921">
        <ele>28.4962158203125</ele>
        <time>2013-08-31T09:26:52Z</time>
      </trkpt>
      <trkpt lat="14.205126883462071" lon="101.396866953000426">
        <ele>28.9769287109375</ele>
        <time>2013-08-31T09:27:34Z</time>
      </trkpt>
      <trkpt lat="14.206043109297752" lon="101.394684640690684">
        <ele>28.0155029296875</ele>
        <time>2013-08-31T09:28:15Z</time>
      </trkpt>
      <trkpt lat="14.206171771511436" lon="101.394651448354125">
        <ele>28.4962158203125</ele>
        <time>2013-08-31T09:28:20Z</time>
      </trkpt>
      <trkpt lat="14.208391634747386" lon="101.396853541955352">
        <ele>35.7060546875</ele>
        <time>2013-08-31T09:29:41Z</time>
      </trkpt>
      <trkpt lat="14.211817318573594" lon="101.400336222723126">
        <ele>32.822265625</ele>
        <time>2013-08-31T09:31:08Z</time>
      </trkpt>
      <trkpt lat="14.215634521096945" lon="101.404108917340636">
        <ele>33.3028564453125</ele>
        <time>2013-08-31T09:32:54Z</time>
      </trkpt>
      <trkpt lat="14.215835183858871" lon="101.404342772439122">
        <ele>33.783447265625</ele>
        <time>2013-08-31T09:33:01Z</time>
      </trkpt>
      <trkpt lat="14.216665998101234" lon="101.404950292780995">
        <ele>33.3028564453125</ele>
        <time>2013-08-31T09:33:22Z</time>
      </trkpt>
      <trkpt lat="14.217542242258787" lon="101.405386151745915">
        <ele>34.26416015625</ele>
        <time>2013-08-31T09:33:41Z</time>
      </trkpt>
      <trkpt lat="14.21830901876092" lon="101.405625538900495">
        <ele>33.783447265625</ele>
        <time>2013-08-31T09:33:57Z</time>
      </trkpt>
      <trkpt lat="14.218401303514838" lon="101.405862830579281">
        <ele>34.26416015625</ele>
        <time>2013-08-31T09:34:04Z</time>
      </trkpt>
      <trkpt lat="14.217932252213359" lon="101.405944637954235">
        <ele>34.26416015625</ele>
        <time>2013-08-31T09:34:16Z</time>
      </trkpt>
      <trkpt lat="14.217563616111875" lon="101.406203052029014">
        <ele>34.26416015625</ele>
        <time>2013-08-31T09:34:26Z</time>
      </trkpt>
      <trkpt lat="14.217337053269148" lon="101.406859941780567">
        <ele>36.66748046875</ele>
        <time>2013-08-31T09:34:41Z</time>
      </trkpt>
      <trkpt lat="14.217253066599369" lon="101.407226230949163">
        <ele>37.1480712890625</ele>
        <time>2013-08-31T09:34:49Z</time>
      </trkpt>
      <trkpt lat="14.217010829597712" lon="101.407307619228959">
        <ele>37.1480712890625</ele>
        <time>2013-08-31T09:34:56Z</time>
      </trkpt>
      <trkpt lat="14.216932458803058" lon="101.407184572890401">
        <ele>37.628662109375</ele>
        <time>2013-08-31T09:34:59Z</time>
      </trkpt>
      <trkpt lat="14.216793151572347" lon="101.406731531023979">
        <ele>36.186767578125</ele>
        <time>2013-08-31T09:35:08Z</time>
      </trkpt>
      <trkpt lat="14.21685291454196" lon="101.406390219926834">
        <ele>36.66748046875</ele>
        <time>2013-08-31T09:35:15Z</time>
      </trkpt>
      <trkpt lat="14.217142090201378" lon="101.40594195574522">
        <ele>42.4354248046875</ele>
        <time>2013-08-31T09:36:33Z</time>
      </trkpt>
      <trkpt lat="14.216952826827765" lon="101.40597271732986">
        <ele>43.3966064453125</ele>
        <time>2013-08-31T09:37:19Z</time>
      </trkpt>
      <trkpt lat="14.216775801032782" lon="101.406492060050368">
        <ele>48.203369140625</ele>
        <time>2013-08-31T09:39:17Z</time>
      </trkpt>
      <trkpt lat="14.216775549575686" lon="101.406493401154876">
        <ele>42.916015625</ele>
        <time>2013-08-31T09:39:42Z</time>
      </trkpt>
    </trkseg>
  </trk>

</gpx>
